Time;durP1;ratioP1;P1;durP2;ratioP2;P2;SDS_P1;SDS_P2;PMS_P1;PMS_P2;Temp;Humidity;BMP_temperature;BMP_pressure;BME280_temperature;BME280_humidity;BME280_pressure;Samples;Min_cycle;Max_cycle;Signal;HPM_P1;HPM_P2
2021/11/09 00:00:33;;;;;;;3.13;1.50;;;11.30;92.50;;;;;;5013983;28;20049;-79
2021/11/09 00:03:07;;;;;;;4.57;1.92;;;11.20;92.40;;;;;;5012498;28;20444;-79
2021/11/09 00:08:33;;;;;;;4.22;2.03;;;11.00;92.60;;;;;;4995435;28;20495;-79
2021/11/09 00:11:01;;;;;;;3.17;2.00;;;11.00;92.80;;;;;;5011164;28;20038;-79
2021/11/09 00:13:29;;;;;;;5.07;2.08;;;11.00;93.00;;;;;;5013355;28;20042;-79
2021/11/09 00:15:56;;;;;;;4.35;2.10;;;11.00;93.00;;;;;;5010417;28;20045;-79
2021/11/09 00:18:25;;;;;;;7.82;2.58;;;11.10;92.80;;;;;;5012372;28;20054;-80
2021/11/09 00:20:53;;;;;;;4.85;2.20;;;11.20;92.70;;;;;;5010442;28;20042;-80
2021/11/09 00:23:21;;;;;;;2.88;2.03;;;11.20;92.50;;;;;;5011828;28;20049;-80
2021/11/09 00:25:49;;;;;;;5.28;2.55;;;11.20;92.50;;;;;;5011194;28;20049;-79
2021/11/09 00:28:16;;;;;;;5.20;2.00;;;11.20;92.50;;;;;;5002662;28;20046;-79
2021/11/09 00:30:44;;;;;;;6.00;2.70;;;11.20;92.40;;;;;;5018513;28;20115;-81
2021/11/09 00:33:12;;;;;;;5.22;2.55;;;11.10;92.50;;;;;;5012148;28;20045;-79
2021/11/09 00:35:40;;;;;;;6.47;2.80;;;11.10;92.50;;;;;;5013117;28;20046;-80
2021/11/09 00:38:10;;;;;;;6.88;2.75;;;11.10;92.60;;;;;;5013473;28;20049;-79
2021/11/09 00:40:40;;;;;;;4.90;3.17;;;11.00;92.60;;;;;;5012791;28;20049;-79
2021/11/09 00:43:10;;;;;;;6.63;3.08;;;11.00;92.80;;;;;;5014291;28;20050;-79
2021/11/09 00:45:39;;;;;;;5.72;3.30;;;10.90;93.00;;;;;;5012266;28;20057;-80
2021/11/09 00:48:07;;;;;;;6.25;3.40;;;10.90;93.00;;;;;;5028756;28;20050;-79
2021/11/09 00:50:37;;;;;;;7.63;3.40;;;10.80;93.00;;;;;;5017832;28;20053;-78
2021/11/09 00:53:07;;;;;;;5.38;3.38;;;10.80;93.20;;;;;;5014771;28;20491;-79
2021/11/09 00:55:36;;;;;;;10.27;4.03;;;10.70;93.30;;;;;;5013591;28;20054;-79
2021/11/09 00:58:04;;;;;;;5.50;3.70;;;10.70;93.40;;;;;;5013820;28;20094;-79
2021/11/09 01:00:33;;;;;;;7.07;4.13;;;10.70;93.50;;;;;;5011816;28;20077;-78
2021/11/09 01:03:04;;;;;;;10.27;4.40;;;10.60;93.50;;;;;;5013310;28;20037;-79
2021/11/09 01:05:33;;;;;;;7.80;4.10;;;10.50;93.50;;;;;;5012419;28;20042;-79
2021/11/09 01:08:04;;;;;;;7.85;4.60;;;10.40;93.50;;;;;;5013089;28;20057;-79
2021/11/09 01:10:35;;;;;;;10.18;5.03;;;10.30;93.60;;;;;;5012353;28;20046;-79
2021/11/09 01:13:05;;;;;;;8.18;5.07;;;10.30;93.50;;;;;;5013442;28;20232;-79
2021/11/09 01:15:35;;;;;;;8.00;5.30;;;10.20;93.70;;;;;;5012521;28;20041;-79
2021/11/09 01:18:05;;;;;;;7.45;4.30;;;10.00;93.70;;;;;;5012825;28;20052;-79
2021/11/09 01:20:34;;;;;;;7.50;4.43;;;10.00;94.20;;;;;;5012276;28;20042;-79
2021/11/09 01:23:04;;;;;;;9.00;3.90;;;10.00;94.30;;;;;;5011124;28;20396;-79
2021/11/09 01:25:32;;;;;;;7.82;3.17;;;10.00;94.60;;;;;;5026880;28;20054;-79
2021/11/09 01:28:01;;;;;;;7.07;2.97;;;10.00;94.50;;;;;;5009444;28;20057;-79
2021/11/09 01:30:28;;;;;;;6.53;2.38;;;10.10;94.50;;;;;;5011615;28;20049;-79
2021/11/09 01:32:57;;;;;;;8.55;2.40;;;10.10;94.50;;;;;;5008413;28;20137;-79
2021/11/09 01:35:24;;;;;;;10.57;2.40;;;10.20;94.40;;;;;;5012481;28;20046;-79
2021/11/09 01:37:52;;;;;;;7.70;2.58;;;10.20;94.40;;;;;;5012840;28;20049;-79
2021/11/09 01:40:23;;;;;;;6.47;2.58;;;10.30;94.20;;;;;;5013263;28;20049;-79
2021/11/09 01:42:53;;;;;;;5.63;2.33;;;10.30;94.10;;;;;;5012181;28;20053;-79
2021/11/09 01:45:22;;;;;;;5.93;2.33;;;10.30;93.90;;;;;;5012749;28;20042;-79
2021/11/09 01:47:51;;;;;;;9.15;2.55;;;10.40;93.80;;;;;;5013012;28;20037;-80
2021/11/09 01:50:26;;;;;;;5.70;2.05;;;10.50;93.60;;;;;;5010995;28;20066;-79
2021/11/09 01:52:54;;;;;;;10.88;2.15;;;10.60;93.30;;;;;;5013011;28;20050;-79
2021/11/09 01:55:23;;;;;;;6.40;2.25;;;10.60;93.00;;;;;;5012477;28;20548;-79
2021/11/09 01:57:52;;;;;;;5.32;2.25;;;10.70;92.90;;;;;;5013413;28;20046;-79
2021/11/09 02:00:25;;;;;;;9.90;2.45;;;10.70;92.70;;;;;;5014051;28;20062;-79
2021/11/09 02:02:54;;;;;;;4.38;2.35;;;10.70;92.60;;;;;;5012963;28;20042;-79
2021/11/09 02:05:21;;;;;;;7.68;2.38;;;10.70;92.50;;;;;;5044475;28;20045;-79
2021/11/09 02:07:53;;;;;;;6.43;2.78;;;10.70;92.50;;;;;;5012648;28;20037;-79
2021/11/09 02:10:25;;;;;;;7.47;2.60;;;10.70;92.50;;;;;;5011447;28;20403;-79
2021/11/09 02:15:20;;;;;;;6.45;2.50;;;10.80;92.30;;;;;;5036177;23;20045;-75
2021/11/09 02:17:49;;;;;;;7.45;3.10;;;10.80;92.20;;;;;;5071612;28;20060;-75
2021/11/09 02:20:19;;;;;;;9.95;3.67;;;10.80;92.20;;;;;;5035074;28;20060;-75
2021/11/09 02:22:49;;;;;;;5.70;3.03;;;10.80;92.10;;;;;;5072144;28;20033;-75
2021/11/09 02:25:19;;;;;;;6.68;3.30;;;10.80;92.00;;;;;;5060826;28;20493;-75
2021/11/09 02:27:48;;;;;;;7.53;3.42;;;10.80;92.00;;;;;;5051240;28;20392;-75
2021/11/09 02:30:19;;;;;;;8.63;3.40;;;10.80;92.00;;;;;;5088407;28;20055;-75
2021/11/09 02:32:47;;;;;;;6.78;3.55;;;10.80;92.00;;;;;;5091640;28;20059;-75
2021/11/09 02:35:15;;;;;;;7.50;3.60;;;10.80;92.00;;;;;;5089656;28;20048;-75
2021/11/09 02:37:44;;;;;;;7.55;3.45;;;10.80;92.10;;;;;;5100261;28;20048;-75
2021/11/09 02:40:12;;;;;;;8.07;3.70;;;10.70;92.10;;;;;;5094465;28;20044;-75
2021/11/09 02:42:43;;;;;;;8.05;3.20;;;10.60;92.10;;;;;;5074571;28;20055;-75
2021/11/09 02:45:16;;;;;;;7.80;3.25;;;10.60;92.20;;;;;;5086462;28;20500;-74
2021/11/09 02:47:55;;;;;;;8.75;3.38;;;10.50;92.30;;;;;;5074162;28;20059;-75
2021/11/09 02:50:27;;;;;;;9.32;3.45;;;10.40;92.40;;;;;;5092041;28;20071;-74
2021/11/09 02:53:00;;;;;;;7.10;3.60;;;10.30;92.60;;;;;;5091032;28;20063;-75
2021/11/09 02:55:35;;;;;;;6.20;3.03;;;10.30;92.70;;;;;;5092520;28;20067;-75
2021/11/09 02:58:14;;;;;;;10.85;3.50;;;10.20;92.80;;;;;;5057491;28;20389;-75
2021/11/09 03:01:01;;;;;;;7.25;3.58;;;10.20;92.90;;;;;;5091663;28;20055;-75
2021/11/09 03:03:54;;;;;;;7.47;3.28;;;10.10;92.90;;;;;;5092275;28;20515;-75
2021/11/09 03:11:39;;;;;;;8.77;3.38;;;9.90;93.20;;;;;;5091514;28;20044;-75
2021/11/09 03:14:06;;;;;;;6.88;2.90;;;9.90;93.40;;;;;;5074227;28;20059;-75
2021/11/09 03:16:37;;;;;;;6.97;3.60;;;9.90;93.40;;;;;;5091915;28;20044;-75
2021/11/09 03:19:17;;;;;;;8.43;3.10;;;9.90;93.30;;;;;;5091866;28;20044;-75
2021/11/09 03:46:54;;;;;;;11.38;2.60;;;9.80;93.60;;;;;;5110918;28;20048;-76
2021/11/09 03:49:26;;;;;;;7.50;2.20;;;9.80;93.40;;;;;;5083798;28;20052;-75
2021/11/09 03:51:56;;;;;;;8.40;2.45;;;9.80;93.50;;;;;;5090993;28;20048;-75
2021/11/09 03:54:28;;;;;;;9.32;2.20;;;9.80;93.60;;;;;;5090592;28;20149;-75
2021/11/09 04:05:13;;;;;;;7.50;1.55;;;10.10;93.40;;;;;;5031640;28;20049;-75
2021/11/09 04:11:03;;;;;;;7.50;1.88;;;10.10;93.20;;;;;;4934705;29;20054;-76
2021/11/09 04:16:20;;;;;;;14.25;2.08;;;10.00;93.30;;;;;;4935236;29;20055;-74
2021/11/09 04:18:57;;;;;;;11.77;2.30;;;10.00;93.30;;;;;;4934833;29;20063;-74
2021/11/09 04:26:57;;;;;;;7.50;1.92;;;10.20;93.40;;;;;;4934619;29;20052;-74
2021/11/09 04:49:11;;;;;;;7.68;1.85;;;10.70;93.00;;;;;;5076102;28;20130;-74
2021/11/09 05:02:50;;;;;;;7.68;1.92;;;10.80;92.80;;;;;;5092901;28;20498;-74
2021/11/09 05:10:38;;;;;;;13.02;1.90;;;10.80;92.70;;;;;;5094099;28;20044;-74
2021/11/09 05:13:06;;;;;;;12.27;2.28;;;10.80;92.80;;;;;;5093147;28;20202;-74
2021/11/09 05:15:33;;;;;;;10.40;1.80;;;10.80;92.70;;;;;;5075614;28;20060;-74
2021/11/09 05:18:01;;;;;;;8.85;1.70;;;10.80;92.70;;;;;;5075701;28;20048;-74
2021/11/09 05:20:32;;;;;;;11.00;2.10;;;10.90;92.70;;;;;;5092517;28;20052;-74
2021/11/09 05:22:59;;;;;;;15.65;2.53;;;10.90;92.70;;;;;;5092920;28;20043;-73
2021/11/09 05:25:27;;;;;;;10.95;1.90;;;10.90;92.60;;;;;;5093442;28;20036;-73
2021/11/09 05:27:55;;;;;;;8.55;1.80;;;10.90;92.60;;;;;;5093177;28;20047;-73
2021/11/09 05:30:24;;;;;;;10.30;2.20;;;11.00;92.50;;;;;;5093299;28;20070;-73
2021/11/09 05:32:53;;;;;;;7.57;2.10;;;11.00;92.50;;;;;;5075257;28;20520;-74
2021/11/09 05:35:22;;;;;;;11.18;2.05;;;11.00;92.40;;;;;;5093436;28;20052;-73
2021/11/09 05:37:52;;;;;;;10.25;2.00;;;11.00;92.40;;;;;;5093304;28;20036;-73
2021/11/09 05:40:26;;;;;;;7.68;2.15;;;11.00;92.30;;;;;;5093379;28;20044;-73
2021/11/09 05:42:54;;;;;;;7.70;1.80;;;11.00;92.30;;;;;;5091697;28;20063;-74
2021/11/09 05:45:22;;;;;;;10.25;1.73;;;11.00;92.30;;;;;;5092045;28;20051;-74
2021/11/09 05:47:49;;;;;;;8.88;1.73;;;11.00;92.20;;;;;;5092356;28;20508;-73
2021/11/09 05:50:17;;;;;;;10.73;1.88;;;11.10;92.20;;;;;;5071416;28;20520;-73
2021/11/09 05:52:45;;;;;;;9.60;2.03;;;11.10;92.20;;;;;;5079660;28;20044;-73
2021/11/09 05:55:13;;;;;;;11.10;2.20;;;11.10;92.10;;;;;;5074330;28;20048;-74
2021/11/09 05:57:40;;;;;;;8.20;1.98;;;11.10;92.10;;;;;;5061758;28;20048;-74
2021/11/09 06:00:09;;;;;;;10.38;1.80;;;11.10;92.10;;;;;;5072784;28;20044;-74
2021/11/09 06:02:40;;;;;;;8.27;2.13;;;11.10;92.00;;;;;;5074761;28;20055;-74
2021/11/09 06:05:08;;;;;;;8.93;1.63;;;11.10;92.00;;;;;;5092403;28;20048;-74
2021/11/09 06:07:36;;;;;;;7.90;2.10;;;11.20;91.90;;;;;;5091937;28;20044;-74
2021/11/09 06:10:04;;;;;;;9.38;1.70;;;11.20;91.90;;;;;;5092934;28;20040;-74
2021/11/09 06:12:33;;;;;;;6.63;1.85;;;11.20;91.90;;;;;;5074551;28;20048;-74
2021/11/09 06:15:00;;;;;;;6.88;1.70;;;11.20;91.80;;;;;;5074362;28;20426;-74
2021/11/09 06:17:28;;;;;;;8.45;1.80;;;11.20;91.80;;;;;;5078910;28;20044;-74
2021/11/09 06:19:56;;;;;;;9.40;2.28;;;11.20;91.80;;;;;;5057688;28;20134;-74
2021/11/09 06:22:24;;;;;;;9.73;1.70;;;11.20;91.80;;;;;;5071057;28;20371;-74
2021/11/09 06:24:51;;;;;;;9.70;1.95;;;11.20;91.70;;;;;;5070659;28;20416;-74
2021/11/09 06:27:21;;;;;;;6.50;1.80;;;11.20;91.70;;;;;;5091132;28;20051;-73
2021/11/09 06:29:49;;;;;;;11.07;2.03;;;11.10;91.70;;;;;;5092695;28;20495;-74
2021/11/09 06:32:16;;;;;;;5.47;1.70;;;11.10;91.70;;;;;;5073147;28;20052;-73
2021/11/09 06:34:44;;;;;;;9.75;2.10;;;11.10;91.70;;;;;;5072626;28;20430;-74
2021/11/09 06:37:12;;;;;;;8.48;1.50;;;11.10;91.70;;;;;;5090542;28;20059;-73
2021/11/09 06:39:40;;;;;;;7.53;1.83;;;11.10;91.70;;;;;;5090523;28;20047;-74
2021/11/09 06:42:07;;;;;;;9.35;1.90;;;11.00;91.70;;;;;;5091561;28;20059;-75
2021/11/09 06:44:35;;;;;;;11.00;2.10;;;11.10;91.70;;;;;;5091409;28;20044;-73
2021/11/09 06:47:03;;;;;;;12.07;2.10;;;11.00;91.70;;;;;;5088343;28;20161;-73
2021/11/09 06:49:31;;;;;;;9.27;2.92;;;11.00;91.70;;;;;;5090396;28;20518;-76
2021/11/09 06:51:59;;;;;;;11.45;1.70;;;11.00;91.60;;;;;;5091709;28;22305;-75
2021/11/09 06:54:28;;;;;;;12.60;2.05;;;10.90;91.60;;;;;;5072987;28;20056;-73
2021/11/09 06:56:56;;;;;;;9.70;1.95;;;10.80;91.70;;;;;;5080011;28;20032;-73
2021/11/09 06:59:23;;;;;;;9.60;2.08;;;10.70;91.80;;;;;;5074086;28;20059;-75
2021/11/09 07:01:55;;;;;;;7.40;1.65;;;10.70;91.90;;;;;;5089883;28;20056;-74
2021/11/09 07:04:23;;;;;;;6.80;1.50;;;10.60;91.80;;;;;;5070217;28;20067;-75
2021/11/09 07:06:51;;;;;;;8.02;1.60;;;10.50;91.90;;;;;;5065446;28;20055;-74
2021/11/09 07:09:18;;;;;;;14.52;1.25;;;10.50;91.90;;;;;;5088698;28;20055;-75
2021/11/09 07:11:47;;;;;;;8.32;1.20;;;10.40;91.90;;;;;;5072989;28;20119;-75
2021/11/09 07:14:15;;;;;;;4.35;1.13;;;10.40;91.90;;;;;;5090482;28;20044;-76
2021/11/09 07:16:44;;;;;;;6.78;1.55;;;10.40;91.80;;;;;;5048681;28;20474;-75
2021/11/09 07:19:15;;;;;;;6.68;1.25;;;10.40;91.80;;;;;;5045151;28;20041;-75
2021/11/09 07:21:43;;;;;;;6.07;1.20;;;10.40;91.70;;;;;;5052694;28;20052;-75
2021/11/09 07:24:11;;;;;;;6.50;1.23;;;10.40;91.60;;;;;;5071576;28;20052;-75
2021/11/09 07:26:39;;;;;;;6.65;1.20;;;10.40;91.50;;;;;;5053484;28;20079;-75
2021/11/09 07:29:07;;;;;;;5.40;1.40;;;10.30;91.50;;;;;;5071597;28;20036;-75
2021/11/09 07:31:35;;;;;;;8.68;1.40;;;10.30;91.60;;;;;;5074716;28;20136;-75
2021/11/09 07:34:03;;;;;;;11.25;1.40;;;10.30;91.50;;;;;;5057765;28;20374;-75
2021/11/09 07:36:37;;;;;;;5.07;1.30;;;10.30;91.50;;;;;;5041764;28;20049;-75
2021/11/09 07:39:07;;;;;;;7.00;1.05;;;10.30;91.50;;;;;;5040818;28;20044;-75
2021/11/09 07:41:35;;;;;;;5.93;1.27;;;10.30;91.40;;;;;;5076255;28;20057;-75
2021/11/09 07:44:04;;;;;;;6.93;1.38;;;10.30;91.30;;;;;;5075575;28;20421;-75
2021/11/09 07:46:33;;;;;;;5.18;1.25;;;10.30;91.30;;;;;;5075087;28;20055;-75
2021/11/09 07:49:02;;;;;;;8.38;1.55;;;10.30;91.20;;;;;;5074128;28;20048;-75
2021/11/09 07:51:30;;;;;;;6.05;1.70;;;10.30;91.30;;;;;;5084759;28;20056;-75
2021/11/09 07:53:59;;;;;;;7.10;1.30;;;10.20;91.30;;;;;;5072239;28;20044;-75
2021/11/09 07:56:36;;;;;;;7.13;1.67;;;10.20;91.40;;;;;;5062787;28;20485;-75
2021/11/09 08:01:56;;;;;;;8.43;1.52;;;10.20;91.50;;;;;;5061018;28;20052;-75
2021/11/09 08:04:29;;;;;;;8.40;1.77;;;10.20;91.50;;;;;;5040400;28;20052;-75
2021/11/09 08:07:04;;;;;;;12.50;2.10;;;10.30;91.50;;;;;;5067686;28;20393;-76
2021/11/09 08:09:32;;;;;;;5.03;1.90;;;10.30;91.60;;;;;;5060859;28;20045;-74
2021/11/09 08:12:02;;;;;;;6.72;2.05;;;10.30;91.50;;;;;;5068899;28;20059;-74
2021/11/09 08:14:30;;;;;;;12.50;2.33;;;10.30;91.40;;;;;;5075733;28;20037;-75
2021/11/09 08:16:59;;;;;;;7.57;2.25;;;10.30;91.40;;;;;;5093181;28;20036;-75
2021/11/09 08:19:27;;;;;;;6.88;2.38;;;10.40;91.40;;;;;;5093412;28;20040;-76
2021/11/09 08:21:57;;;;;;;7.88;2.70;;;10.40;91.50;;;;;;5071482;28;20056;-76
2021/11/09 08:24:26;;;;;;;9.60;3.15;;;10.40;91.50;;;;;;5084851;28;20469;-76
2021/11/09 08:26:56;;;;;;;6.72;2.40;;;10.50;91.60;;;;;;5094559;28;20059;-76
2021/11/09 08:29:26;;;;;;;10.93;2.60;;;10.50;91.70;;;;;;5094004;28;20397;-76
2021/11/09 08:31:56;;;;;;;11.43;2.63;;;10.60;91.60;;;;;;5094625;28;20048;-75
2021/11/09 08:34:28;;;;;;;5.65;2.30;;;10.70;91.60;;;;;;5076960;28;20047;-75
2021/11/09 08:36:58;;;;;;;7.45;2.20;;;10.80;91.50;;;;;;5094983;28;20290;-76
2021/11/09 08:39:34;;;;;;;8.68;2.42;;;10.80;91.40;;;;;;5094706;28;20056;-76
2021/11/09 08:44:40;;;;;;;10.18;1.95;;;11.00;91.20;;;;;;5076561;28;20409;-76
2021/11/09 08:47:10;;;;;;;5.32;1.83;;;11.20;91.10;;;;;;5093967;28;20071;-76
2021/11/09 08:49:38;;;;;;;5.78;2.10;;;11.30;90.90;;;;;;5094713;28;20473;-76
2021/11/09 08:52:11;;;;;;;10.18;2.40;;;11.30;90.70;;;;;;5094730;28;20052;-76
2021/11/09 08:54:51;;;;;;;7.75;2.38;;;11.30;90.50;;;;;;5094641;28;20397;-75
2021/11/09 09:05:39;;;;;;;9.38;2.50;;;11.60;90.20;;;;;;5094258;28;20040;-75
2021/11/09 09:08:06;;;;;;;9.07;2.53;;;11.80;90.10;;;;;;5094288;28;20393;-75
2021/11/09 09:10:34;;;;;;;8.10;2.30;;;11.90;89.90;;;;;;5076396;28;20067;-75
2021/11/09 09:13:02;;;;;;;9.40;2.60;;;12.00;89.80;;;;;;5076147;28;20044;-76
2021/11/09 09:15:30;;;;;;;6.97;2.58;;;12.20;89.60;;;;;;5093222;28;20390;-75
2021/11/09 09:17:58;;;;;;;8.45;2.60;;;12.40;89.40;;;;;;5093394;28;20206;-76
2021/11/09 09:20:33;;;;;;;8.18;2.35;;;12.60;88.90;;;;;;5094068;28;20040;-76
2021/11/09 09:23:08;;;;;;;8.60;2.20;;;12.70;88.40;;;;;;5094066;28;20048;-75
2021/11/09 09:31:24;;;;;;;9.43;1.90;;;12.80;87.50;;;;;;5093712;28;19935;-76
2021/11/09 09:59:08;;;;;;;6.70;1.80;;;13.10;86.60;;;;;;5037720;28;20064;-75
2021/11/09 10:02:25;;;;;;;7.57;1.60;;;13.10;86.70;;;;;;5033918;28;20510;-75
2021/11/09 10:04:58;;;;;;;7.90;2.20;;;13.20;86.50;;;;;;5050603;28;20060;-75
2021/11/09 10:07:26;;;;;;;;;;;13.30;86.10;;;;;;5017866;28;20049;-75
2021/11/09 10:09:54;;;;;;;9.60;1.90;;;13.30;86.10;;;;;;5049658;28;19924;-75
2021/11/09 10:12:26;;;;;;;5.80;1.63;;;13.30;86.00;;;;;;5052815;28;20049;-75
2021/11/09 10:14:56;;;;;;;7.47;1.88;;;13.30;85.90;;;;;;5092294;28;20660;-75
2021/11/09 10:17:27;;;;;;;8.50;2.00;;;13.40;85.90;;;;;;5092945;28;20344;-75
2021/11/09 10:19:58;;;;;;;3.90;1.23;;;13.40;85.90;;;;;;5092827;28;20059;-76
2021/11/09 10:22:32;;;;;;;3.65;0.80;;;13.50;85.90;;;;;;5093033;28;20047;-75
2021/11/09 10:25:07;;;;;;;5.10;0.80;;;13.60;85.50;;;;;;5092758;28;20036;-75
2021/11/09 10:27:36;;;;;;;3.20;0.73;;;13.60;85.20;;;;;;5092137;28;20056;-74
2021/11/09 10:30:12;;;;;;;4.13;0.77;;;13.70;85.00;;;;;;5092539;28;20047;-74
2021/11/09 10:32:40;;;;;;;3.42;0.80;;;13.80;85.00;;;;;;5092579;28;20044;-75
2021/11/09 10:35:11;;;;;;;5.72;0.95;;;13.80;84.70;;;;;;5073944;28;20063;-75
2021/11/09 10:37:45;;;;;;;2.53;0.77;;;13.80;84.30;;;;;;5092779;28;20048;-75
2021/11/09 10:40:17;;;;;;;3.30;0.73;;;13.80;84.30;;;;;;5091974;28;20048;-76
2021/11/09 10:42:48;;;;;;;2.70;0.85;;;13.80;84.20;;;;;;5092851;28;20048;-76
2021/11/09 10:45:19;;;;;;;3.38;0.60;;;13.80;84.40;;;;;;5091836;28;20131;-74
2021/11/09 10:47:49;;;;;;;2.95;0.88;;;13.80;84.40;;;;;;5092629;28;20511;-75
2021/11/09 10:50:27;;;;;;;3.92;0.73;;;13.80;84.20;;;;;;5092470;28;20040;-74
2021/11/09 10:53:30;;;;;;;4.10;0.73;;;13.80;84.10;;;;;;5059144;28;20048;-75
2021/11/09 11:06:16;;;;;;;1.65;0.40;;;14.20;83.70;;;;;;5090935;28;20055;-74
2021/11/09 11:08:53;;;;;;;2.83;0.50;;;14.30;83.50;;;;;;5092141;28;20036;-75
2021/11/09 11:11:29;;;;;;;4.05;0.30;;;14.30;83.20;;;;;;5074142;28;20052;-74
2021/11/09 11:14:09;;;;;;;5.63;0.47;;;14.40;83.20;;;;;;5092309;28;20442;-74
2021/11/09 11:16:46;;;;;;;2.97;0.60;;;14.50;83.20;;;;;;5074242;28;20389;-74
2021/11/09 11:19:17;;;;;;;0.38;0.25;;;14.60;83.20;;;;;;5092127;28;20040;-74
2021/11/09 11:21:47;;;;;;;2.72;0.47;;;14.70;83.20;;;;;;5091244;28;20063;-75
2021/11/09 11:24:15;;;;;;;1.65;0.50;;;14.80;82.40;;;;;;5092039;28;20044;-75
2021/11/09 11:26:45;;;;;;;1.15;0.43;;;14.90;82.20;;;;;;5057433;28;20052;-75
2021/11/09 11:29:18;;;;;;;4.57;0.50;;;15.00;82.20;;;;;;5090933;28;20052;-75
2021/11/09 11:31:47;;;;;;;2.90;0.45;;;15.00;82.30;;;;;;5092041;28;20040;-74
2021/11/09 11:34:20;;;;;;;3.00;0.75;;;15.10;82.00;;;;;;5074064;28;20052;-76
2021/11/09 11:36:49;;;;;;;3.75;0.40;;;15.10;81.60;;;;;;5073639;28;20059;-75
2021/11/09 11:39:20;;;;;;;1.77;0.43;;;15.10;81.50;;;;;;5091953;28;20040;-74
2021/11/09 11:41:52;;;;;;;2.08;0.40;;;15.10;81.60;;;;;;5091198;28;20056;-74
2021/11/09 11:44:23;;;;;;;1.33;0.22;;;15.00;81.60;;;;;;5067394;28;20056;-74
2021/11/09 11:46:56;;;;;;;0.43;0.20;;;15.00;81.60;;;;;;5050482;28;20055;-74
2021/11/09 11:49:27;;;;;;;0.80;0.40;;;15.00;81.50;;;;;;5067259;28;20040;-75
2021/11/09 11:51:55;;;;;;;0.55;0.20;;;15.10;81.40;;;;;;5068400;28;20063;-74
2021/11/09 11:54:49;;;;;;;1.27;0.30;;;15.10;81.20;;;;;;5069492;28;20056;-75
2021/11/09 11:57:27;;;;;;;1.63;0.20;;;15.10;81.40;;;;;;5051398;28;20055;-74
2021/11/09 11:59:55;;;;;;;1.17;0.30;;;15.10;81.60;;;;;;5069755;28;20041;-75
2021/11/09 12:02:34;;;;;;;1.60;0.30;;;15.00;81.50;;;;;;5046985;28;20049;-74
2021/11/09 12:05:03;;;;;;;1.00;0.30;;;15.00;81.70;;;;;;5067211;28;20040;-74
2021/11/09 12:07:55;;;;;;;0.60;0.30;;;15.00;81.60;;;;;;5068661;28;20065;-74
2021/11/09 12:10:35;;;;;;;1.42;0.30;;;15.00;81.50;;;;;;5067220;28;20583;-74
2021/11/09 12:13:09;;;;;;;0.85;0.13;;;15.00;81.40;;;;;;5067059;28;20067;-75
2021/11/09 12:16:01;;;;;;;0.68;0.22;;;15.00;81.60;;;;;;5083413;28;20056;-75
2021/11/09 12:18:31;;;;;;;1.58;0.22;;;15.10;81.30;;;;;;5076663;28;20063;-75
2021/11/09 12:21:04;;;;;;;1.40;0.20;;;15.10;81.50;;;;;;5075001;28;20052;-74
2021/11/09 12:23:35;;;;;;;0.75;0.20;;;15.10;81.40;;;;;;5074784;28;20059;-75
2021/11/09 12:26:37;;;;;;;2.60;0.20;;;15.20;81.10;;;;;;5059418;28;20041;-74
2021/11/09 12:29:36;;;;;;;1.95;0.30;;;15.20;81.40;;;;;;5056992;28;20393;-75
2021/11/09 12:32:31;;;;;;;0.68;0.20;;;15.30;81.40;;;;;;5074730;28;20047;-75
2021/11/09 12:35:03;;;;;;;0.88;0.30;;;15.30;81.00;;;;;;5056665;28;20044;-74
2021/11/09 12:37:42;;;;;;;3.50;0.40;;;15.30;81.10;;;;;;5074777;28;20048;-73
2021/11/09 12:40:29;;;;;;;0.55;0.20;;;15.40;81.10;;;;;;5074640;28;20060;-74
2021/11/09 12:43:22;;;;;;;1.20;0.30;;;15.40;81.00;;;;;;5074701;28;20048;-73
2021/11/09 12:46:37;;;;;;;1.65;0.25;;;15.40;80.80;;;;;;5074621;28;20060;-74
2021/11/09 12:49:06;;;;;;;1.50;0.30;;;15.50;80.80;;;;;;5064256;28;20040;-74
2021/11/09 12:51:44;;;;;;;3.53;0.60;;;15.50;80.90;;;;;;5063015;28;20044;-75
2021/11/09 12:54:15;;;;;;;1.75;0.20;;;15.60;80.50;;;;;;5081362;28;20048;-75
2021/11/09 12:56:58;;;;;;;1.95;0.20;;;15.60;80.70;;;;;;5094495;28;20044;-75
2021/11/09 12:59:29;;;;;;;2.38;0.30;;;15.50;80.80;;;;;;5094312;28;20052;-76
2021/11/09 13:02:22;;;;;;;3.15;0.50;;;15.50;80.70;;;;;;5076219;28;20052;-76
2021/11/09 13:04:56;;;;;;;1.73;0.30;;;15.50;80.70;;;;;;5094214;28;20067;-75
2021/11/09 13:07:36;;;;;;;0.68;0.30;;;15.40;81.00;;;;;;5074235;28;20052;-74
2021/11/09 13:10:18;;;;;;;2.40;0.20;;;15.30;81.20;;;;;;5092956;28;20048;-75
2021/11/09 13:12:50;;;;;;;0.73;0.20;;;15.30;81.40;;;;;;5092418;28;20051;-75
2021/11/09 13:15:20;;;;;;;1.65;0.13;;;15.30;81.50;;;;;;5073858;28;20056;-76
2021/11/09 13:18:08;;;;;;;0.30;0.15;;;15.20;81.70;;;;;;5073917;28;20055;-75
2021/11/09 13:20:48;;;;;;;10.38;0.40;;;15.20;81.80;;;;;;5091946;28;20047;-75
2021/11/09 13:23:19;;;;;;;1.02;0.20;;;15.20;82.10;;;;;;5092104;28;20040;-75
2021/11/09 13:25:55;;;;;;;1.17;0.30;;;15.10;82.30;;;;;;5092333;28;20051;-75
2021/11/09 13:28:36;;;;;;;2.05;0.35;;;15.10;82.50;;;;;;5093141;28;20421;-75
2021/11/09 13:31:10;;;;;;;0.73;0.25;;;15.10;82.60;;;;;;5093757;28;20042;-75
2021/11/09 13:33:50;;;;;;;0.40;0.22;;;15.10;82.70;;;;;;5078719;28;20044;-75
2021/11/09 13:36:21;;;;;;;0.88;0.20;;;15.10;82.90;;;;;;5082992;28;20045;-75
2021/11/09 13:38:49;;;;;;;0.47;0.10;;;15.10;82.90;;;;;;5062076;28;20040;-75
2021/11/09 13:41:20;;;;;;;1.00;0.20;;;15.00;83.00;;;;;;5081562;28;20036;-75
2021/11/09 13:43:55;;;;;;;0.15;0.10;;;15.00;83.10;;;;;;5080472;28;20044;-75
2021/11/09 13:46:31;;;;;;;1.05;0.20;;;15.00;83.10;;;;;;5081117;28;20047;-75
2021/11/09 13:49:02;;;;;;;1.38;0.22;;;15.00;83.20;;;;;;5080723;28;20056;-75
2021/11/09 13:51:33;;;;;;;0.77;0.25;;;15.00;83.30;;;;;;5082245;28;20393;-76
2021/11/09 13:54:07;;;;;;;0.32;0.30;;;15.00;83.40;;;;;;5083014;28;20066;-75
2021/11/09 13:56:35;;;;;;;0.10;0.00;;;14.90;83.50;;;;;;5061823;28;20048;-75
2021/11/09 13:59:06;;;;;;;0.20;0.10;;;14.90;83.50;;;;;;5080413;28;20519;-75
2021/11/09 14:02:38;;;;;;;0.52;0.17;;;15.00;83.50;;;;;;5078106;28;20049;-75
2021/11/09 14:16:16;;;;;;;0.20;0.17;;;14.90;83.70;;;;;;5055453;28;20052;-74
2021/11/09 14:18:50;;;;;;;1.15;0.13;;;14.90;83.80;;;;;;5092497;28;20052;-74
2021/11/09 14:21:30;;;;;;;0.13;0.13;;;15.00;83.90;;;;;;5086161;28;20067;-75
2021/11/09 14:24:15;;;;;;;0.25;0.10;;;14.90;84.00;;;;;;5081378;28;20520;-75
2021/11/09 14:26:46;;;;;;;0.32;0.10;;;15.00;84.00;;;;;;5081941;28;20055;-74
2021/11/09 14:29:18;;;;;;;0.65;0.22;;;15.00;84.00;;;;;;5090838;28;20036;-73
2021/11/09 14:32:00;;;;;;;1.35;0.10;;;15.00;84.10;;;;;;5092000;28;20505;-74
2021/11/09 14:34:29;;;;;;;0.38;0.20;;;15.00;84.10;;;;;;5069501;28;20052;-73
2021/11/09 14:37:18;;;;;;;0.10;0.10;;;14.90;84.30;;;;;;5065410;28;20041;-74
2021/11/09 14:40:07;;;;;;;0.17;0.10;;;14.90;84.40;;;;;;5063094;28;20037;-74
2021/11/09 14:45:34;;;;;;;1.98;0.50;;;14.80;84.70;;;;;;5064451;28;20063;-74
2021/11/09 14:48:10;;;;;;;1.98;0.70;;;14.80;84.80;;;;;;5071443;28;20055;-74
2021/11/09 14:53:27;;;;;;;2.60;0.60;;;14.80;84.90;;;;;;5077289;28;20433;-74
2021/11/09 14:55:58;;;;;;;1.20;0.60;;;14.70;85.10;;;;;;5054432;28;20393;-74
2021/11/09 14:58:37;;;;;;;5.03;0.90;;;14.70;85.10;;;;;;5072211;28;20071;-74
2021/11/09 15:01:27;;;;;;;1.83;0.80;;;14.60;85.20;;;;;;5072189;28;20055;-74
2021/11/09 15:04:17;;;;;;;2.45;0.90;;;14.60;85.20;;;;;;5064176;28;20068;-74
2021/11/09 15:12:31;;;;;;;4.10;1.43;;;14.60;85.50;;;;;;5082571;28;20045;-73
2021/11/09 15:28:51;;;;;;;2.58;0.88;;;14.40;86.10;;;;;;5059515;28;20501;-74
2021/11/09 15:33:53;;;;;;;2.08;0.80;;;14.40;86.20;;;;;;5057431;28;20398;-74
2021/11/09 15:38:49;;;;;;;2.75;0.80;;;14.40;86.30;;;;;;5051102;28;20505;-75
2021/11/09 15:41:17;;;;;;;2.33;0.63;;;14.40;86.30;;;;;;5062499;28;20485;-74
2021/11/09 15:43:46;;;;;;;2.22;0.50;;;14.30;86.40;;;;;;5076035;28;20111;-74
2021/11/09 15:46:14;;;;;;;2.70;0.40;;;14.30;86.40;;;;;;5073397;28;20409;-75
2021/11/09 15:48:42;;;;;;;2.15;0.32;;;14.40;86.40;;;;;;5079595;28;20047;-74
2021/11/09 15:51:10;;;;;;;2.92;0.17;;;14.40;86.40;;;;;;5078523;28;20053;-74
2021/11/09 15:53:38;;;;;;;3.20;0.10;;;14.40;86.30;;;;;;5064713;28;20048;-74
2021/11/09 15:56:06;;;;;;;1.75;0.20;;;14.40;86.30;;;;;;5084032;28;20051;-76
2021/11/09 15:58:33;;;;;;;0.80;0.10;;;14.40;86.00;;;;;;5066797;28;20040;-75
2021/11/09 16:01:03;;;;;;;1.10;0.30;;;14.40;85.90;;;;;;5081248;28;20421;-75
2021/11/09 16:03:31;;;;;;;0.50;0.30;;;14.40;86.00;;;;;;5074162;28;20468;-74
2021/11/09 16:06:00;;;;;;;0.35;0.22;;;14.40;86.00;;;;;;5074789;28;20048;-74
2021/11/09 16:08:31;;;;;;;0.40;0.20;;;14.40;85.90;;;;;;5066515;28;20060;-73
2021/11/09 16:11:05;;;;;;;0.70;0.30;;;14.40;85.90;;;;;;5054532;28;20057;-74
2021/11/09 16:13:32;;;;;;;;;;;14.40;85.80;;;;;;5067504;28;20540;-75
2021/11/09 16:16:01;;;;;;;1.58;0.10;;;14.40;85.70;;;;;;5081451;28;19924;-75
2021/11/09 16:18:29;;;;;;;0.15;0.10;;;14.40;85.70;;;;;;5074448;28;20055;-74